sensor_id;sensor_type;location;lat;lon;timestamp;temperature;humidity
5846;DHT22;2949;50.778;7.094;2022-07-29T00:00:39;18.10;99.90
5846;DHT22;2949;50.778;7.094;2022-07-29T00:03:04;18.20;99.90
5846;DHT22;2949;50.778;7.094;2022-07-29T00:05:30;18.20;99.90
5846;DHT22;2949;50.778;7.094;2022-07-29T00:07:56;18.20;99.90
5846;DHT22;2949;50.778;7.094;2022-07-29T00:10:21;18.20;99.90
5846;DHT22;2949;50.778;7.094;2022-07-29T00:12:47;18.20;99.90
5846;DHT22;2949;50.778;7.094;2022-07-29T00:15:13;18.20;99.90
5846;DHT22;2949;50.778;7.094;2022-07-29T00:17:38;18.10;99.90
5846;DHT22;2949;50.778;7.094;2022-07-29T00:20:05;18.10;99.90
5846;DHT22;2949;50.778;7.094;2022-07-29T00:22:30;18.10;99.90
5846;DHT22;2949;50.778;7.094;2022-07-29T00:24:56;18.10;99.90
5846;DHT22;2949;50.778;7.094;2022-07-29T00:27:22;18.20;99.90
5846;DHT22;2949;50.778;7.094;2022-07-29T00:29:47;18.10;99.90
5846;DHT22;2949;50.778;7.094;2022-07-29T00:32:13;18.10;99.90
5846;DHT22;2949;50.778;7.094;2022-07-29T00:34:39;18.10;99.90
5846;DHT22;2949;50.778;7.094;2022-07-29T00:37:23;18.20;99.90
5846;DHT22;2949;50.778;7.094;2022-07-29T00:39:49;18.10;99.90
5846;DHT22;2949;50.778;7.094;2022-07-29T00:42:14;18.10;99.90
5846;DHT22;2949;50.778;7.094;2022-07-29T00:44:41;18.10;99.90
5846;DHT22;2949;50.778;7.094;2022-07-29T00:47:08;18.00;99.90
5846;DHT22;2949;50.778;7.094;2022-07-29T00:49:34;17.90;99.90
5846;DHT22;2949;50.778;7.094;2022-07-29T00:52:07;17.90;99.90
5846;DHT22;2949;50.778;7.094;2022-07-29T00:54:33;17.80;99.90
5846;DHT22;2949;50.778;7.094;2022-07-29T00:56:59;17.80;99.90
5846;DHT22;2949;50.778;7.094;2022-07-29T00:59:28;17.80;99.90
5846;DHT22;2949;50.778;7.094;2022-07-29T01:01:54;17.80;99.90
5846;DHT22;2949;50.778;7.094;2022-07-29T01:04:21;17.70;99.90
5846;DHT22;2949;50.778;7.094;2022-07-29T01:06:47;17.70;99.90
5846;DHT22;2949;50.778;7.094;2022-07-29T01:09:14;17.70;99.90
5846;DHT22;2949;50.778;7.094;2022-07-29T01:11:40;17.70;99.90
5846;DHT22;2949;50.778;7.094;2022-07-29T01:14:07;17.70;99.90
5846;DHT22;2949;50.778;7.094;2022-07-29T01:16:44;17.70;99.90
5846;DHT22;2949;50.778;7.094;2022-07-29T01:19:40;17.70;99.90
5846;DHT22;2949;50.778;7.094;2022-07-29T01:22:35;17.70;99.90
5846;DHT22;2949;50.778;7.094;2022-07-29T01:25:10;17.60;99.90
5846;DHT22;2949;50.778;7.094;2022-07-29T01:30:24;17.50;99.90
5846;DHT22;2949;50.778;7.094;2022-07-29T01:32:54;17.50;99.90
5846;DHT22;2949;50.778;7.094;2022-07-29T01:35:41;17.40;99.90
5846;DHT22;2949;50.778;7.094;2022-07-29T01:38:15;17.40;99.90
5846;DHT22;2949;50.778;7.094;2022-07-29T01:40:43;17.40;99.90
5846;DHT22;2949;50.778;7.094;2022-07-29T01:43:13;17.40;99.90
5846;DHT22;2949;50.778;7.094;2022-07-29T01:45:57;17.40;99.90
5846;DHT22;2949;50.778;7.094;2022-07-29T01:48:37;17.40;99.90
5846;DHT22;2949;50.778;7.094;2022-07-29T01:51:25;17.40;99.90
5846;DHT22;2949;50.778;7.094;2022-07-29T01:54:08;17.40;99.90
5846;DHT22;2949;50.778;7.094;2022-07-29T01:56:36;17.40;99.90
5846;DHT22;2949;50.778;7.094;2022-07-29T01:59:04;17.40;99.90
5846;DHT22;2949;50.778;7.094;2022-07-29T02:01:33;17.40;99.90
5846;DHT22;2949;50.778;7.094;2022-07-29T02:04:02;17.30;99.90
5846;DHT22;2949;50.778;7.094;2022-07-29T02:06:30;17.20;99.90
5846;DHT22;2949;50.778;7.094;2022-07-29T02:08:58;17.10;99.90
5846;DHT22;2949;50.778;7.094;2022-07-29T02:11:24;17.10;99.90
5846;DHT22;2949;50.778;7.094;2022-07-29T02:13:52;17.10;99.90
5846;DHT22;2949;50.778;7.094;2022-07-29T02:16:21;17.00;99.90
5846;DHT22;2949;50.778;7.094;2022-07-29T02:18:51;16.90;99.90
5846;DHT22;2949;50.778;7.094;2022-07-29T02:21:23;16.90;99.90
5846;DHT22;2949;50.778;7.094;2022-07-29T02:23:51;16.80;99.90
5846;DHT22;2949;50.778;7.094;2022-07-29T02:26:20;16.70;99.90
5846;DHT22;2949;50.778;7.094;2022-07-29T02:28:47;16.50;99.90
5846;DHT22;2949;50.778;7.094;2022-07-29T02:31:14;16.30;99.90
5846;DHT22;2949;50.778;7.094;2022-07-29T02:33:42;16.20;99.90
5846;DHT22;2949;50.778;7.094;2022-07-29T02:36:08;16.10;99.90
5846;DHT22;2949;50.778;7.094;2022-07-29T02:38:35;16.00;99.90
5846;DHT22;2949;50.778;7.094;2022-07-29T02:41:28;16.00;99.90
5846;DHT22;2949;50.778;7.094;2022-07-29T02:43:57;16.00;99.90
5846;DHT22;2949;50.778;7.094;2022-07-29T02:46:29;16.00;99.90
5846;DHT22;2949;50.778;7.094;2022-07-29T02:51:51;16.00;99.90
5846;DHT22;2949;50.778;7.094;2022-07-29T02:54:31;16.10;99.90
5846;DHT22;2949;50.778;7.094;2022-07-29T02:57:00;16.10;99.90
5846;DHT22;2949;50.778;7.094;2022-07-29T02:59:29;16.20;99.90
5846;DHT22;2949;50.778;7.094;2022-07-29T03:01:57;16.20;99.90
5846;DHT22;2949;50.778;7.094;2022-07-29T03:04:25;16.20;99.90
5846;DHT22;2949;50.778;7.094;2022-07-29T03:06:52;16.20;99.90
5846;DHT22;2949;50.778;7.094;2022-07-29T03:09:18;16.10;99.90
5846;DHT22;2949;50.778;7.094;2022-07-29T03:11:44;16.10;99.90
5846;DHT22;2949;50.778;7.094;2022-07-29T03:14:10;16.10;99.90
5846;DHT22;2949;50.778;7.094;2022-07-29T03:16:37;16.10;99.90
5846;DHT22;2949;50.778;7.094;2022-07-29T03:19:03;16.10;99.90
5846;DHT22;2949;50.778;7.094;2022-07-29T03:21:30;16.20;99.90
5846;DHT22;2949;50.778;7.094;2022-07-29T03:23:55;16.20;99.90
5846;DHT22;2949;50.778;7.094;2022-07-29T03:26:21;16.30;99.90
5846;DHT22;2949;50.778;7.094;2022-07-29T03:28:46;16.30;99.90
5846;DHT22;2949;50.778;7.094;2022-07-29T03:31:12;16.30;99.90
5846;DHT22;2949;50.778;7.094;2022-07-29T03:33:37;16.30;99.90
5846;DHT22;2949;50.778;7.094;2022-07-29T03:36:03;16.30;99.90
5846;DHT22;2949;50.778;7.094;2022-07-29T03:38:30;16.30;99.90
5846;DHT22;2949;50.778;7.094;2022-07-29T03:41:01;16.30;99.90
5846;DHT22;2949;50.778;7.094;2022-07-29T03:43:31;16.30;99.90
5846;DHT22;2949;50.778;7.094;2022-07-29T03:46:00;16.30;99.90
5846;DHT22;2949;50.778;7.094;2022-07-29T03:48:26;16.30;99.90
5846;DHT22;2949;50.778;7.094;2022-07-29T03:50:54;16.20;99.90
5846;DHT22;2949;50.778;7.094;2022-07-29T03:53:20;16.20;99.90
5846;DHT22;2949;50.778;7.094;2022-07-29T03:55:52;16.20;99.90
5846;DHT22;2949;50.778;7.094;2022-07-29T03:58:19;16.20;99.90
5846;DHT22;2949;50.778;7.094;2022-07-29T04:00:45;16.20;99.90
5846;DHT22;2949;50.778;7.094;2022-07-29T04:03:12;16.10;99.90
5846;DHT22;2949;50.778;7.094;2022-07-29T04:05:38;16.10;99.90
5846;DHT22;2949;50.778;7.094;2022-07-29T04:08:04;16.00;99.90
5846;DHT22;2949;50.778;7.094;2022-07-29T04:10:29;16.00;99.90
5846;DHT22;2949;50.778;7.094;2022-07-29T04:12:55;15.90;99.90
5846;DHT22;2949;50.778;7.094;2022-07-29T04:15:20;15.90;99.90
5846;DHT22;2949;50.778;7.094;2022-07-29T04:17:46;15.90;99.90
5846;DHT22;2949;50.778;7.094;2022-07-29T04:20:12;15.90;99.90
5846;DHT22;2949;50.778;7.094;2022-07-29T04:22:39;16.00;99.90
5846;DHT22;2949;50.778;7.094;2022-07-29T04:25:05;16.00;99.90
5846;DHT22;2949;50.778;7.094;2022-07-29T04:27:30;16.10;99.90
5846;DHT22;2949;50.778;7.094;2022-07-29T04:29:56;16.20;99.90
5846;DHT22;2949;50.778;7.094;2022-07-29T04:32:21;16.30;99.90
5846;DHT22;2949;50.778;7.094;2022-07-29T04:34:47;16.50;99.90
5846;DHT22;2949;50.778;7.094;2022-07-29T04:37:13;16.60;99.90
5846;DHT22;2949;50.778;7.094;2022-07-29T04:39:38;16.70;99.90
5846;DHT22;2949;50.778;7.094;2022-07-29T04:42:04;16.80;99.90
5846;DHT22;2949;50.778;7.094;2022-07-29T04:44:30;16.90;99.90
5846;DHT22;2949;50.778;7.094;2022-07-29T04:46:56;17.00;99.90
5846;DHT22;2949;50.778;7.094;2022-07-29T04:49:22;17.10;99.90
5846;DHT22;2949;50.778;7.094;2022-07-29T04:51:48;17.20;99.90
5846;DHT22;2949;50.778;7.094;2022-07-29T04:54:14;17.20;99.90
5846;DHT22;2949;50.778;7.094;2022-07-29T04:56:39;17.30;99.90
5846;DHT22;2949;50.778;7.094;2022-07-29T04:59:05;17.30;99.90
5846;DHT22;2949;50.778;7.094;2022-07-29T05:01:30;17.30;99.90
5846;DHT22;2949;50.778;7.094;2022-07-29T05:03:56;17.40;99.90
5846;DHT22;2949;50.778;7.094;2022-07-29T05:06:21;17.60;99.90
5846;DHT22;2949;50.778;7.094;2022-07-29T05:08:47;17.80;99.90
5846;DHT22;2949;50.778;7.094;2022-07-29T05:11:12;18.00;99.90
5846;DHT22;2949;50.778;7.094;2022-07-29T05:13:38;18.20;99.90
5846;DHT22;2949;50.778;7.094;2022-07-29T05:16:04;18.50;99.90
5846;DHT22;2949;50.778;7.094;2022-07-29T05:18:30;18.90;99.90
5846;DHT22;2949;50.778;7.094;2022-07-29T05:20:55;19.20;99.90
5846;DHT22;2949;50.778;7.094;2022-07-29T05:23:21;19.60;99.90
5846;DHT22;2949;50.778;7.094;2022-07-29T05:25:47;20.00;99.90
5846;DHT22;2949;50.778;7.094;2022-07-29T05:28:12;20.30;99.90
5846;DHT22;2949;50.778;7.094;2022-07-29T05:30:38;20.50;99.90
5846;DHT22;2949;50.778;7.094;2022-07-29T05:33:04;20.90;99.90
5846;DHT22;2949;50.778;7.094;2022-07-29T05:35:29;21.10;99.90
5846;DHT22;2949;50.778;7.094;2022-07-29T05:37:55;21.30;99.90
5846;DHT22;2949;50.778;7.094;2022-07-29T05:40:20;21.30;99.90
5846;DHT22;2949;50.778;7.094;2022-07-29T05:42:46;21.20;99.90
5846;DHT22;2949;50.778;7.094;2022-07-29T05:45:12;21.10;99.90
5846;DHT22;2949;50.778;7.094;2022-07-29T05:47:38;21.00;99.90
5846;DHT22;2949;50.778;7.094;2022-07-29T05:50:04;21.00;99.90
5846;DHT22;2949;50.778;7.094;2022-07-29T05:52:29;20.90;99.90
5846;DHT22;2949;50.778;7.094;2022-07-29T05:54:55;20.80;99.90
5846;DHT22;2949;50.778;7.094;2022-07-29T05:57:22;20.50;99.90
5846;DHT22;2949;50.778;7.094;2022-07-29T05:59:49;20.50;99.90
5846;DHT22;2949;50.778;7.094;2022-07-29T06:02:16;20.40;99.90
5846;DHT22;2949;50.778;7.094;2022-07-29T06:04:41;20.40;99.90
5846;DHT22;2949;50.778;7.094;2022-07-29T06:07:07;20.40;99.90
5846;DHT22;2949;50.778;7.094;2022-07-29T06:09:33;20.50;99.90
5846;DHT22;2949;50.778;7.094;2022-07-29T06:11:59;20.70;99.90
5846;DHT22;2949;50.778;7.094;2022-07-29T06:14:25;20.80;99.90
5846;DHT22;2949;50.778;7.094;2022-07-29T06:16:52;20.80;99.90
5846;DHT22;2949;50.778;7.094;2022-07-29T06:19:18;21.00;99.90
5846;DHT22;2949;50.778;7.094;2022-07-29T06:21:46;21.00;99.90
5846;DHT22;2949;50.778;7.094;2022-07-29T06:24:12;21.00;99.90
5846;DHT22;2949;50.778;7.094;2022-07-29T06:26:39;20.80;99.90
5846;DHT22;2949;50.778;7.094;2022-07-29T06:29:06;21.00;99.90
5846;DHT22;2949;50.778;7.094;2022-07-29T06:31:31;21.30;99.90
5846;DHT22;2949;50.778;7.094;2022-07-29T06:33:57;21.70;99.90
5846;DHT22;2949;50.778;7.094;2022-07-29T06:36:23;22.20;99.90
5846;DHT22;2949;50.778;7.094;2022-07-29T06:38:48;23.20;99.90
5846;DHT22;2949;50.778;7.094;2022-07-29T06:41:14;26.50;99.90
5846;DHT22;2949;50.778;7.094;2022-07-29T06:43:42;29.10;92.40
5846;DHT22;2949;50.778;7.094;2022-07-29T06:46:10;31.00;83.30
5846;DHT22;2949;50.778;7.094;2022-07-29T06:48:36;33.20;74.30
5846;DHT22;2949;50.778;7.094;2022-07-29T06:51:03;35.30;59.10
5846;DHT22;2949;50.778;7.094;2022-07-29T06:53:29;35.30;52.30
5846;DHT22;2949;50.778;7.094;2022-07-29T06:55:55;33.50;52.10
5846;DHT22;2949;50.778;7.094;2022-07-29T06:58:21;31.40;54.50
5846;DHT22;2949;50.778;7.094;2022-07-29T07:00:47;29.70;56.70
5846;DHT22;2949;50.778;7.094;2022-07-29T07:03:14;28.20;59.30
5846;DHT22;2949;50.778;7.094;2022-07-29T07:05:39;27.10;62.10
5846;DHT22;2949;50.778;7.094;2022-07-29T07:08:05;26.80;65.00
5846;DHT22;2949;50.778;7.094;2022-07-29T07:10:32;26.70;65.20
5846;DHT22;2949;50.778;7.094;2022-07-29T07:12:57;26.60;66.60
5846;DHT22;2949;50.778;7.094;2022-07-29T07:15:23;26.40;65.80
5846;DHT22;2949;50.778;7.094;2022-07-29T07:17:49;26.10;66.50
5846;DHT22;2949;50.778;7.094;2022-07-29T07:20:15;25.80;67.30
5846;DHT22;2949;50.778;7.094;2022-07-29T07:22:41;25.50;67.50
5846;DHT22;2949;50.778;7.094;2022-07-29T07:25:07;25.20;68.60
5846;DHT22;2949;50.778;7.094;2022-07-29T07:27:32;24.90;70.40
5846;DHT22;2949;50.778;7.094;2022-07-29T07:29:58;24.60;71.70
5846;DHT22;2949;50.778;7.094;2022-07-29T07:32:23;24.30;74.60
5846;DHT22;2949;50.778;7.094;2022-07-29T07:34:49;24.30;75.90
5846;DHT22;2949;50.778;7.094;2022-07-29T07:37:14;24.30;76.60
5846;DHT22;2949;50.778;7.094;2022-07-29T07:39:41;24.20;77.90
5846;DHT22;2949;50.778;7.094;2022-07-29T07:42:06;24.30;77.10
5846;DHT22;2949;50.778;7.094;2022-07-29T07:44:32;24.30;77.00
5846;DHT22;2949;50.778;7.094;2022-07-29T07:46:58;24.20;77.30
5846;DHT22;2949;50.778;7.094;2022-07-29T07:49:23;24.10;77.60
5846;DHT22;2949;50.778;7.094;2022-07-29T07:51:49;24.00;79.00
5846;DHT22;2949;50.778;7.094;2022-07-29T07:54:14;24.00;79.50
5846;DHT22;2949;50.778;7.094;2022-07-29T07:56:40;23.90;79.30
5846;DHT22;2949;50.778;7.094;2022-07-29T07:59:06;23.90;79.40
5846;DHT22;2949;50.778;7.094;2022-07-29T08:01:31;23.70;79.40
5846;DHT22;2949;50.778;7.094;2022-07-29T08:03:57;23.70;82.70
5846;DHT22;2949;50.778;7.094;2022-07-29T08:06:22;24.20;80.50
5846;DHT22;2949;50.778;7.094;2022-07-29T08:08:50;24.80;81.10
5846;DHT22;2949;50.778;7.094;2022-07-29T08:11:16;25.10;83.80
5846;DHT22;2949;50.778;7.094;2022-07-29T08:13:42;26.10;82.20
5846;DHT22;2949;50.778;7.094;2022-07-29T08:16:09;27.50;79.50
5846;DHT22;2949;50.778;7.094;2022-07-29T08:18:39;28.50;72.90
5846;DHT22;2949;50.778;7.094;2022-07-29T08:21:05;28.60;71.00
5846;DHT22;2949;50.778;7.094;2022-07-29T08:23:30;28.70;72.60
5846;DHT22;2949;50.778;7.094;2022-07-29T08:26:10;29.80;70.80
5846;DHT22;2949;50.778;7.094;2022-07-29T08:28:45;30.70;67.20
5846;DHT22;2949;50.778;7.094;2022-07-29T08:31:12;29.90;68.00
5846;DHT22;2949;50.778;7.094;2022-07-29T08:33:38;29.00;69.20
5846;DHT22;2949;50.778;7.094;2022-07-29T08:36:04;28.50;70.60
5846;DHT22;2949;50.778;7.094;2022-07-29T08:38:30;27.90;71.40
5846;DHT22;2949;50.778;7.094;2022-07-29T08:40:55;27.60;72.50
5846;DHT22;2949;50.778;7.094;2022-07-29T08:43:21;27.20;73.30
5846;DHT22;2949;50.778;7.094;2022-07-29T08:45:49;27.00;75.80
5846;DHT22;2949;50.778;7.094;2022-07-29T08:48:17;27.00;75.90
5846;DHT22;2949;50.778;7.094;2022-07-29T08:50:44;26.70;77.10
5846;DHT22;2949;50.778;7.094;2022-07-29T08:53:14;26.60;76.80
5846;DHT22;2949;50.778;7.094;2022-07-29T08:55:43;26.50;77.00
5846;DHT22;2949;50.778;7.094;2022-07-29T08:58:09;26.70;77.80
5846;DHT22;2949;50.778;7.094;2022-07-29T09:00:38;28.80;73.90
5846;DHT22;2949;50.778;7.094;2022-07-29T09:03:06;31.30;68.00
5846;DHT22;2949;50.778;7.094;2022-07-29T09:05:33;33.80;63.60
5846;DHT22;2949;50.778;7.094;2022-07-29T09:08:00;35.90;57.00
5846;DHT22;2949;50.778;7.094;2022-07-29T09:10:26;37.00;53.80
5846;DHT22;2949;50.778;7.094;2022-07-29T09:12:52;37.10;51.00
5846;DHT22;2949;50.778;7.094;2022-07-29T09:15:18;37.20;50.70
5846;DHT22;2949;50.778;7.094;2022-07-29T09:17:49;37.70;49.40
5846;DHT22;2949;50.778;7.094;2022-07-29T09:20:16;38.30;47.40
5846;DHT22;2949;50.778;7.094;2022-07-29T09:22:43;38.70;45.90
5846;DHT22;2949;50.778;7.094;2022-07-29T09:25:11;37.80;47.00
5846;DHT22;2949;50.778;7.094;2022-07-29T09:27:37;37.40;47.60
5846;DHT22;2949;50.778;7.094;2022-07-29T09:30:05;37.00;47.70
5846;DHT22;2949;50.778;7.094;2022-07-29T09:32:33;37.20;48.00
5846;DHT22;2949;50.778;7.094;2022-07-29T09:35:16;37.90;46.50
5846;DHT22;2949;50.778;7.094;2022-07-29T09:37:43;37.70;47.00
5846;DHT22;2949;50.778;7.094;2022-07-29T09:40:17;37.40;46.20
5846;DHT22;2949;50.778;7.094;2022-07-29T09:42:43;36.90;46.90
5846;DHT22;2949;50.778;7.094;2022-07-29T09:45:10;35.10;49.10
5846;DHT22;2949;50.778;7.094;2022-07-29T09:47:41;33.10;51.90
5846;DHT22;2949;50.778;7.094;2022-07-29T09:50:07;32.40;53.40
5846;DHT22;2949;50.778;7.094;2022-07-29T09:52:47;33.40;53.10
5846;DHT22;2949;50.778;7.094;2022-07-29T09:55:13;33.90;51.90
5846;DHT22;2949;50.778;7.094;2022-07-29T09:57:39;34.40;51.50
5846;DHT22;2949;50.778;7.094;2022-07-29T10:02:35;35.90;49.40
5846;DHT22;2949;50.778;7.094;2022-07-29T10:05:04;36.30;47.00
5846;DHT22;2949;50.778;7.094;2022-07-29T10:07:48;36.40;47.20
5846;DHT22;2949;50.778;7.094;2022-07-29T10:10:28;36.70;46.80
5846;DHT22;2949;50.778;7.094;2022-07-29T10:12:59;37.30;45.60
5846;DHT22;2949;50.778;7.094;2022-07-29T10:15:28;37.00;44.90
5846;DHT22;2949;50.778;7.094;2022-07-29T10:17:55;35.80;47.10
5846;DHT22;2949;50.778;7.094;2022-07-29T10:20:22;34.50;48.10
5846;DHT22;2949;50.778;7.094;2022-07-29T10:22:48;33.30;49.80
5846;DHT22;2949;50.778;7.094;2022-07-29T10:25:15;32.70;51.50
5846;DHT22;2949;50.778;7.094;2022-07-29T10:27:42;32.20;52.20
5846;DHT22;2949;50.778;7.094;2022-07-29T10:30:09;31.80;53.40
5846;DHT22;2949;50.778;7.094;2022-07-29T10:32:39;31.80;53.60
5846;DHT22;2949;50.778;7.094;2022-07-29T10:40:57;32.00;53.00
5846;DHT22;2949;50.778;7.094;2022-07-29T10:43:46;32.60;52.10
5846;DHT22;2949;50.778;7.094;2022-07-29T10:46:13;33.40;51.30
5846;DHT22;2949;50.778;7.094;2022-07-29T10:49:05;34.00;49.00
5846;DHT22;2949;50.778;7.094;2022-07-29T10:54:20;33.10;50.10
5846;DHT22;2949;50.778;7.094;2022-07-29T10:57:30;32.60;50.10
5846;DHT22;2949;50.778;7.094;2022-07-29T11:05:17;32.50;50.70
5846;DHT22;2949;50.778;7.094;2022-07-29T11:10:38;32.40;50.70
5846;DHT22;2949;50.778;7.094;2022-07-29T11:13:03;32.60;50.80
5846;DHT22;2949;50.778;7.094;2022-07-29T11:15:55;32.50;51.70
5846;DHT22;2949;50.778;7.094;2022-07-29T11:18:21;32.20;51.70
5846;DHT22;2949;50.778;7.094;2022-07-29T11:20:48;32.00;51.80
5846;DHT22;2949;50.778;7.094;2022-07-29T11:23:28;31.90;51.30
5846;DHT22;2949;50.778;7.094;2022-07-29T11:28:38;31.60;51.60
5846;DHT22;2949;50.778;7.094;2022-07-29T11:31:05;31.40;51.40
5846;DHT22;2949;50.778;7.094;2022-07-29T11:33:33;31.20;52.10
5846;DHT22;2949;50.778;7.094;2022-07-29T11:36:14;30.90;51.30
5846;DHT22;2949;50.778;7.094;2022-07-29T11:38:40;30.80;52.20
5846;DHT22;2949;50.778;7.094;2022-07-29T11:43:53;31.20;51.70
5846;DHT22;2949;50.778;7.094;2022-07-29T11:49:24;31.10;51.20
5846;DHT22;2949;50.778;7.094;2022-07-29T11:51:55;30.40;52.20
5846;DHT22;2949;50.778;7.094;2022-07-29T11:54:26;30.10;52.70
5846;DHT22;2949;50.778;7.094;2022-07-29T11:56:52;29.80;52.40
5846;DHT22;2949;50.778;7.094;2022-07-29T11:59:19;29.80;53.30
5846;DHT22;2949;50.778;7.094;2022-07-29T12:01:58;30.20;52.30
5846;DHT22;2949;50.778;7.094;2022-07-29T12:04:24;30.70;51.30
5846;DHT22;2949;50.778;7.094;2022-07-29T12:06:52;30.70;51.70
5846;DHT22;2949;50.778;7.094;2022-07-29T12:09:18;30.20;51.60
5846;DHT22;2949;50.778;7.094;2022-07-29T12:11:45;30.10;51.60
5846;DHT22;2949;50.778;7.094;2022-07-29T12:14:27;29.90;52.20
5846;DHT22;2949;50.778;7.094;2022-07-29T12:16:53;29.50;53.50
5846;DHT22;2949;50.778;7.094;2022-07-29T12:19:19;29.20;53.90
5846;DHT22;2949;50.778;7.094;2022-07-29T12:21:52;28.80;54.00
5846;DHT22;2949;50.778;7.094;2022-07-29T12:24:19;29.00;54.20
5846;DHT22;2949;50.778;7.094;2022-07-29T12:26:56;29.30;53.70
5846;DHT22;2949;50.778;7.094;2022-07-29T12:29:23;29.60;53.20
5846;DHT22;2949;50.778;7.094;2022-07-29T12:31:53;29.90;52.90
5846;DHT22;2949;50.778;7.094;2022-07-29T12:34:22;30.30;52.70
5846;DHT22;2949;50.778;7.094;2022-07-29T12:36:48;30.70;52.10
5846;DHT22;2949;50.778;7.094;2022-07-29T12:39:16;30.90;51.20
5846;DHT22;2949;50.778;7.094;2022-07-29T12:41:42;31.10;51.00
5846;DHT22;2949;50.778;7.094;2022-07-29T12:44:08;30.70;51.20
5846;DHT22;2949;50.778;7.094;2022-07-29T12:46:34;30.90;52.10
5846;DHT22;2949;50.778;7.094;2022-07-29T12:49:00;31.00;51.60
5846;DHT22;2949;50.778;7.094;2022-07-29T12:51:31;30.80;51.70
5846;DHT22;2949;50.778;7.094;2022-07-29T12:56:33;30.60;52.30
5846;DHT22;2949;50.778;7.094;2022-07-29T12:58:59;30.40;52.20
5846;DHT22;2949;50.778;7.094;2022-07-29T13:01:24;30.30;52.40
5846;DHT22;2949;50.778;7.094;2022-07-29T13:03:57;30.20;52.80
5846;DHT22;2949;50.778;7.094;2022-07-29T13:06:42;30.00;53.40
5846;DHT22;2949;50.778;7.094;2022-07-29T13:09:19;29.90;54.40
5846;DHT22;2949;50.778;7.094;2022-07-29T13:11:47;30.10;53.90
5846;DHT22;2949;50.778;7.094;2022-07-29T13:14:31;30.20;53.40
5846;DHT22;2949;50.778;7.094;2022-07-29T13:17:09;30.00;53.30
5846;DHT22;2949;50.778;7.094;2022-07-29T13:19:41;30.00;53.60
5846;DHT22;2949;50.778;7.094;2022-07-29T13:22:09;29.90;53.50
5846;DHT22;2949;50.778;7.094;2022-07-29T13:24:48;29.90;53.80
5846;DHT22;2949;50.778;7.094;2022-07-29T13:27:15;30.20;53.80
5846;DHT22;2949;50.778;7.094;2022-07-29T13:29:41;30.30;53.00
5846;DHT22;2949;50.778;7.094;2022-07-29T13:32:07;30.20;52.90
5846;DHT22;2949;50.778;7.094;2022-07-29T13:34:32;30.00;53.50
5846;DHT22;2949;50.778;7.094;2022-07-29T13:36:58;30.00;53.10
5846;DHT22;2949;50.778;7.094;2022-07-29T13:39:24;30.00;53.70
5846;DHT22;2949;50.778;7.094;2022-07-29T13:41:49;30.00;53.30
5846;DHT22;2949;50.778;7.094;2022-07-29T13:44:15;30.00;53.70
5846;DHT22;2949;50.778;7.094;2022-07-29T13:46:40;30.00;53.10
5846;DHT22;2949;50.778;7.094;2022-07-29T13:49:06;30.00;52.90
5846;DHT22;2949;50.778;7.094;2022-07-29T13:51:31;29.80;52.50
5846;DHT22;2949;50.778;7.094;2022-07-29T13:53:57;29.60;52.50
5846;DHT22;2949;50.778;7.094;2022-07-29T13:56:22;29.50;53.30
5846;DHT22;2949;50.778;7.094;2022-07-29T13:58:48;29.40;52.80
5846;DHT22;2949;50.778;7.094;2022-07-29T14:01:13;29.10;53.00
5846;DHT22;2949;50.778;7.094;2022-07-29T14:03:39;29.00;53.20
5846;DHT22;2949;50.778;7.094;2022-07-29T14:06:06;29.00;53.60
5846;DHT22;2949;50.778;7.094;2022-07-29T14:08:32;29.10;53.40
5846;DHT22;2949;50.778;7.094;2022-07-29T14:10:58;28.80;53.70
5846;DHT22;2949;50.778;7.094;2022-07-29T14:13:23;28.40;53.80
5846;DHT22;2949;50.778;7.094;2022-07-29T14:15:49;28.30;54.40
5846;DHT22;2949;50.778;7.094;2022-07-29T14:18:14;28.20;54.90
5846;DHT22;2949;50.778;7.094;2022-07-29T14:20:40;28.40;55.00
5846;DHT22;2949;50.778;7.094;2022-07-29T14:23:05;28.70;54.70
5846;DHT22;2949;50.778;7.094;2022-07-29T14:25:31;29.20;54.40
5846;DHT22;2949;50.778;7.094;2022-07-29T14:27:56;29.30;54.20
5846;DHT22;2949;50.778;7.094;2022-07-29T14:30:22;29.30;53.80
5846;DHT22;2949;50.778;7.094;2022-07-29T14:32:47;29.00;54.30
5846;DHT22;2949;50.778;7.094;2022-07-29T14:35:13;28.80;55.40
5846;DHT22;2949;50.778;7.094;2022-07-29T14:37:39;28.60;55.90
5846;DHT22;2949;50.778;7.094;2022-07-29T14:40:05;28.30;57.00
5846;DHT22;2949;50.778;7.094;2022-07-29T14:42:31;28.30;57.40
5846;DHT22;2949;50.778;7.094;2022-07-29T14:44:57;28.30;57.00
5846;DHT22;2949;50.778;7.094;2022-07-29T14:47:23;28.30;56.80
5846;DHT22;2949;50.778;7.094;2022-07-29T14:49:49;28.40;57.60
5846;DHT22;2949;50.778;7.094;2022-07-29T14:52:14;28.40;57.60
5846;DHT22;2949;50.778;7.094;2022-07-29T14:54:40;28.40;57.10
5846;DHT22;2949;50.778;7.094;2022-07-29T14:57:06;28.40;57.10
5846;DHT22;2949;50.778;7.094;2022-07-29T14:59:31;28.40;56.80
5846;DHT22;2949;50.778;7.094;2022-07-29T15:01:57;28.30;57.10
5846;DHT22;2949;50.778;7.094;2022-07-29T15:04:22;28.10;57.50
5846;DHT22;2949;50.778;7.094;2022-07-29T15:06:48;28.20;57.50
5846;DHT22;2949;50.778;7.094;2022-07-29T15:09:14;28.10;57.90
5846;DHT22;2949;50.778;7.094;2022-07-29T15:11:39;28.10;57.40
5846;DHT22;2949;50.778;7.094;2022-07-29T15:14:05;28.00;57.70
5846;DHT22;2949;50.778;7.094;2022-07-29T15:16:31;28.00;57.40
5846;DHT22;2949;50.778;7.094;2022-07-29T15:18:57;27.90;57.60
5846;DHT22;2949;50.778;7.094;2022-07-29T15:21:23;27.80;58.20
5846;DHT22;2949;50.778;7.094;2022-07-29T15:23:49;27.70;58.40
5846;DHT22;2949;50.778;7.094;2022-07-29T15:26:14;27.70;58.10
5846;DHT22;2949;50.778;7.094;2022-07-29T15:28:40;27.60;58.30
5846;DHT22;2949;50.778;7.094;2022-07-29T15:31:06;27.60;58.70
5846;DHT22;2949;50.778;7.094;2022-07-29T15:33:31;27.70;58.00
5846;DHT22;2949;50.778;7.094;2022-07-29T15:35:57;27.70;58.70
5846;DHT22;2949;50.778;7.094;2022-07-29T15:38:22;27.80;59.30
5846;DHT22;2949;50.778;7.094;2022-07-29T15:40:48;27.90;59.50
5846;DHT22;2949;50.778;7.094;2022-07-29T15:43:13;27.90;59.50
5846;DHT22;2949;50.778;7.094;2022-07-29T15:45:40;27.90;59.40
5846;DHT22;2949;50.778;7.094;2022-07-29T15:48:08;28.00;59.00
5846;DHT22;2949;50.778;7.094;2022-07-29T15:50:34;27.90;58.90
5846;DHT22;2949;50.778;7.094;2022-07-29T15:52:59;27.80;59.30
5846;DHT22;2949;50.778;7.094;2022-07-29T15:55:25;27.80;59.10
5846;DHT22;2949;50.778;7.094;2022-07-29T15:57:51;27.80;59.20
5846;DHT22;2949;50.778;7.094;2022-07-29T16:00:16;27.80;59.00
5846;DHT22;2949;50.778;7.094;2022-07-29T16:02:42;28.00;59.10
5846;DHT22;2949;50.778;7.094;2022-07-29T16:05:08;28.00;58.30
5846;DHT22;2949;50.778;7.094;2022-07-29T16:07:34;28.00;58.20
5846;DHT22;2949;50.778;7.094;2022-07-29T16:10:00;28.00;57.80
5846;DHT22;2949;50.778;7.094;2022-07-29T16:12:25;28.00;57.90
5846;DHT22;2949;50.778;7.094;2022-07-29T16:14:51;28.20;57.50
5846;DHT22;2949;50.778;7.094;2022-07-29T16:17:17;28.30;57.50
5846;DHT22;2949;50.778;7.094;2022-07-29T16:19:43;28.50;56.90
5846;DHT22;2949;50.778;7.094;2022-07-29T16:22:10;28.40;56.50
5846;DHT22;2949;50.778;7.094;2022-07-29T16:24:36;28.60;56.20
5846;DHT22;2949;50.778;7.094;2022-07-29T16:27:03;28.80;55.70
5846;DHT22;2949;50.778;7.094;2022-07-29T16:29:29;28.80;55.90
5846;DHT22;2949;50.778;7.094;2022-07-29T16:31:54;28.80;55.10
5846;DHT22;2949;50.778;7.094;2022-07-29T16:34:20;28.70;55.80
5846;DHT22;2949;50.778;7.094;2022-07-29T16:36:45;28.80;55.40
5846;DHT22;2949;50.778;7.094;2022-07-29T16:39:11;28.70;55.40
5846;DHT22;2949;50.778;7.094;2022-07-29T16:41:37;28.50;56.10